sensor_id;sensor_type;location;lat;lon;timestamp;P1;durP1;ratioP1;P2;durP2;ratioP2
43345;SDS011;28937;51.160;4.146;2022-10-16T00:01:48;2.63;;;1.15;;
43345;SDS011;28937;51.160;4.146;2022-10-16T00:04:13;3.30;;;1.20;;
43345;SDS011;28937;51.160;4.146;2022-10-16T00:06:39;1.35;;;0.80;;
43345;SDS011;28937;51.160;4.146;2022-10-16T00:09:05;2.53;;;1.10;;
43345;SDS011;28937;51.160;4.146;2022-10-16T00:11:32;2.70;;;0.88;;
43345;SDS011;28937;51.160;4.146;2022-10-16T00:14:02;1.40;;;0.90;;
43345;SDS011;28937;51.160;4.146;2022-10-16T00:16:29;3.92;;;1.10;;
43345;SDS011;28937;51.160;4.146;2022-10-16T00:18:55;1.83;;;0.77;;
43345;SDS011;28937;51.160;4.146;2022-10-16T00:21:23;2.03;;;0.80;;
43345;SDS011;28937;51.160;4.146;2022-10-16T00:24:11;1.60;;;0.90;;
43345;SDS011;28937;51.160;4.146;2022-10-16T00:26:37;4.47;;;0.95;;
43345;SDS011;28937;51.160;4.146;2022-10-16T00:29:03;1.98;;;1.00;;
43345;SDS011;28937;51.160;4.146;2022-10-16T00:31:29;1.60;;;1.00;;
43345;SDS011;28937;51.160;4.146;2022-10-16T00:33:55;1.33;;;0.70;;
43345;SDS011;28937;51.160;4.146;2022-10-16T00:36:22;1.65;;;0.73;;
43345;SDS011;28937;51.160;4.146;2022-10-16T00:38:53;1.02;;;0.68;;
43345;SDS011;28937;51.160;4.146;2022-10-16T00:41:20;1.40;;;0.70;;
43345;SDS011;28937;51.160;4.146;2022-10-16T00:43:49;2.05;;;0.98;;
43345;SDS011;28937;51.160;4.146;2022-10-16T00:46:21;1.92;;;0.80;;
43345;SDS011;28937;51.160;4.146;2022-10-16T00:48:54;2.70;;;1.00;;
43345;SDS011;28937;51.160;4.146;2022-10-16T00:51:32;2.10;;;0.77;;
43345;SDS011;28937;51.160;4.146;2022-10-16T00:54:01;2.85;;;0.95;;
43345;SDS011;28937;51.160;4.146;2022-10-16T00:56:28;3.58;;;0.70;;
43345;SDS011;28937;51.160;4.146;2022-10-16T00:58:54;1.75;;;0.93;;
43345;SDS011;28937;51.160;4.146;2022-10-16T01:01:20;1.23;;;0.57;;
43345;SDS011;28937;51.160;4.146;2022-10-16T01:03:46;1.67;;;0.73;;
43345;SDS011;28937;51.160;4.146;2022-10-16T01:09:37;1.38;;;0.60;;
43345;SDS011;28937;51.160;4.146;2022-10-16T01:11:59;1.95;;;0.60;;
43345;SDS011;28937;51.160;4.146;2022-10-16T01:14:40;1.30;;;0.60;;
43345;SDS011;28937;51.160;4.146;2022-10-16T01:17:18;1.65;;;0.60;;
43345;SDS011;28937;51.160;4.146;2022-10-16T01:20:05;1.63;;;0.75;;
43345;SDS011;28937;51.160;4.146;2022-10-16T01:23:18;4.15;;;0.93;;
43345;SDS011;28937;51.160;4.146;2022-10-16T01:28:42;1.73;;;0.70;;
43345;SDS011;28937;51.160;4.146;2022-10-16T01:31:27;0.95;;;0.50;;
43345;SDS011;28937;51.160;4.146;2022-10-16T01:34:02;2.40;;;0.55;;
43345;SDS011;28937;51.160;4.146;2022-10-16T01:36:33;2.60;;;0.68;;
43345;SDS011;28937;51.160;4.146;2022-10-16T01:39:04;2.13;;;0.63;;
43345;SDS011;28937;51.160;4.146;2022-10-16T01:41:35;7.93;;;0.80;;
43345;SDS011;28937;51.160;4.146;2022-10-16T01:44:07;4.03;;;1.02;;
43345;SDS011;28937;51.160;4.146;2022-10-16T01:46:37;0.90;;;0.60;;
43345;SDS011;28937;51.160;4.146;2022-10-16T01:49:06;1.50;;;0.63;;
43345;SDS011;28937;51.160;4.146;2022-10-16T01:51:34;1.50;;;0.80;;
43345;SDS011;28937;51.160;4.146;2022-10-16T01:54:00;1.75;;;0.60;;
43345;SDS011;28937;51.160;4.146;2022-10-16T01:56:28;3.67;;;0.60;;
43345;SDS011;28937;51.160;4.146;2022-10-16T01:58:55;2.30;;;0.60;;
43345;SDS011;28937;51.160;4.146;2022-10-16T02:01:45;3.13;;;0.50;;
43345;SDS011;28937;51.160;4.146;2022-10-16T02:04:33;1.63;;;0.77;;
43345;SDS011;28937;51.160;4.146;2022-10-16T02:07:02;1.05;;;0.60;;
43345;SDS011;28937;51.160;4.146;2022-10-16T02:09:29;2.90;;;0.57;;
43345;SDS011;28937;51.160;4.146;2022-10-16T02:11:55;1.42;;;0.73;;
43345;SDS011;28937;51.160;4.146;2022-10-16T02:14:23;2.15;;;0.70;;
43345;SDS011;28937;51.160;4.146;2022-10-16T02:16:49;4.03;;;0.73;;
43345;SDS011;28937;51.160;4.146;2022-10-16T02:19:16;3.55;;;0.90;;
43345;SDS011;28937;51.160;4.146;2022-10-16T02:21:53;2.95;;;0.80;;
43345;SDS011;28937;51.160;4.146;2022-10-16T02:24:43;1.27;;;0.60;;
43345;SDS011;28937;51.160;4.146;2022-10-16T02:27:33;2.42;;;0.80;;
43345;SDS011;28937;51.160;4.146;2022-10-16T02:30:02;4.00;;;0.80;;
43345;SDS011;28937;51.160;4.146;2022-10-16T02:32:33;3.47;;;0.93;;
43345;SDS011;28937;51.160;4.146;2022-10-16T02:35:01;1.17;;;0.60;;
43345;SDS011;28937;51.160;4.146;2022-10-16T02:37:27;2.05;;;0.60;;
43345;SDS011;28937;51.160;4.146;2022-10-16T02:39:54;2.10;;;1.02;;
43345;SDS011;28937;51.160;4.146;2022-10-16T02:42:27;2.60;;;0.60;;
43345;SDS011;28937;51.160;4.146;2022-10-16T02:44:54;2.75;;;0.75;;
43345;SDS011;28937;51.160;4.146;2022-10-16T02:47:20;0.88;;;0.57;;
43345;SDS011;28937;51.160;4.146;2022-10-16T02:49:45;3.50;;;0.98;;
43345;SDS011;28937;51.160;4.146;2022-10-16T02:52:11;2.35;;;0.80;;
43345;SDS011;28937;51.160;4.146;2022-10-16T02:54:36;2.28;;;0.77;;
43345;SDS011;28937;51.160;4.146;2022-10-16T02:57:02;2.28;;;0.70;;
43345;SDS011;28937;51.160;4.146;2022-10-16T02:59:28;3.20;;;1.00;;
43345;SDS011;28937;51.160;4.146;2022-10-16T03:01:53;2.35;;;0.82;;
43345;SDS011;28937;51.160;4.146;2022-10-16T03:04:19;1.85;;;0.88;;
43345;SDS011;28937;51.160;4.146;2022-10-16T03:06:44;3.63;;;1.00;;
43345;SDS011;28937;51.160;4.146;2022-10-16T03:09:10;3.00;;;1.00;;
43345;SDS011;28937;51.160;4.146;2022-10-16T03:11:35;1.60;;;0.70;;
43345;SDS011;28937;51.160;4.146;2022-10-16T03:14:01;4.85;;;1.13;;
43345;SDS011;28937;51.160;4.146;2022-10-16T03:16:27;3.42;;;1.02;;
43345;SDS011;28937;51.160;4.146;2022-10-16T03:18:52;1.83;;;0.60;;
43345;SDS011;28937;51.160;4.146;2022-10-16T03:21:18;4.65;;;1.08;;
43345;SDS011;28937;51.160;4.146;2022-10-16T03:23:43;4.35;;;1.42;;
43345;SDS011;28937;51.160;4.146;2022-10-16T03:26:09;3.85;;;0.80;;
43345;SDS011;28937;51.160;4.146;2022-10-16T03:28:34;3.00;;;1.00;;
43345;SDS011;28937;51.160;4.146;2022-10-16T03:31:00;3.55;;;1.35;;
43345;SDS011;28937;51.160;4.146;2022-10-16T03:33:26;2.05;;;1.00;;
43345;SDS011;28937;51.160;4.146;2022-10-16T03:35:52;3.30;;;1.30;;
43345;SDS011;28937;51.160;4.146;2022-10-16T03:38:19;3.95;;;1.13;;
43345;SDS011;28937;51.160;4.146;2022-10-16T03:40:45;2.53;;;1.17;;
43345;SDS011;28937;51.160;4.146;2022-10-16T03:43:11;2.42;;;1.30;;
43345;SDS011;28937;51.160;4.146;2022-10-16T03:45:36;2.67;;;1.25;;
43345;SDS011;28937;51.160;4.146;2022-10-16T03:48:02;2.15;;;1.00;;
43345;SDS011;28937;51.160;4.146;2022-10-16T03:50:28;2.13;;;1.20;;
43345;SDS011;28937;51.160;4.146;2022-10-16T03:52:54;3.42;;;1.23;;
43345;SDS011;28937;51.160;4.146;2022-10-16T03:55:20;1.73;;;1.20;;
43345;SDS011;28937;51.160;4.146;2022-10-16T03:57:45;3.20;;;1.30;;
43345;SDS011;28937;51.160;4.146;2022-10-16T04:00:11;5.38;;;1.83;;
43345;SDS011;28937;51.160;4.146;2022-10-16T04:02:37;4.28;;;1.23;;
43345;SDS011;28937;51.160;4.146;2022-10-16T04:05:03;3.88;;;1.40;;
43345;SDS011;28937;51.160;4.146;2022-10-16T04:07:28;1.77;;;0.90;;
43345;SDS011;28937;51.160;4.146;2022-10-16T04:09:54;3.72;;;1.42;;
43345;SDS011;28937;51.160;4.146;2022-10-16T04:12:20;3.47;;;1.42;;
43345;SDS011;28937;51.160;4.146;2022-10-16T04:14:45;2.78;;;1.25;;
43345;SDS011;28937;51.160;4.146;2022-10-16T04:17:11;3.53;;;1.50;;
43345;SDS011;28937;51.160;4.146;2022-10-16T04:19:36;3.17;;;1.17;;
43345;SDS011;28937;51.160;4.146;2022-10-16T04:22:02;4.07;;;1.55;;
43345;SDS011;28937;51.160;4.146;2022-10-16T04:24:27;2.88;;;1.20;;
43345;SDS011;28937;51.160;4.146;2022-10-16T04:26:53;4.95;;;1.20;;
43345;SDS011;28937;51.160;4.146;2022-10-16T04:29:19;4.60;;;1.70;;
43345;SDS011;28937;51.160;4.146;2022-10-16T04:31:44;2.55;;;1.20;;
43345;SDS011;28937;51.160;4.146;2022-10-16T04:34:10;4.70;;;1.73;;
43345;SDS011;28937;51.160;4.146;2022-10-16T04:36:35;3.03;;;1.55;;
43345;SDS011;28937;51.160;4.146;2022-10-16T04:39:01;3.10;;;1.75;;
43345;SDS011;28937;51.160;4.146;2022-10-16T04:41:26;2.33;;;1.48;;
43345;SDS011;28937;51.160;4.146;2022-10-16T04:43:52;3.88;;;1.40;;
43345;SDS011;28937;51.160;4.146;2022-10-16T04:46:17;2.70;;;1.42;;
43345;SDS011;28937;51.160;4.146;2022-10-16T04:48:43;5.80;;;1.15;;
43345;SDS011;28937;51.160;4.146;2022-10-16T04:51:08;2.20;;;1.40;;
43345;SDS011;28937;51.160;4.146;2022-10-16T04:53:34;4.82;;;1.67;;
43345;SDS011;28937;51.160;4.146;2022-10-16T04:55:59;3.33;;;1.75;;
43345;SDS011;28937;51.160;4.146;2022-10-16T04:58:25;3.30;;;1.52;;
43345;SDS011;28937;51.160;4.146;2022-10-16T05:00:50;3.80;;;1.75;;
43345;SDS011;28937;51.160;4.146;2022-10-16T05:03:16;3.75;;;1.27;;
43345;SDS011;28937;51.160;4.146;2022-10-16T05:05:42;3.78;;;1.30;;
43345;SDS011;28937;51.160;4.146;2022-10-16T05:08:09;4.78;;;1.75;;
43345;SDS011;28937;51.160;4.146;2022-10-16T05:10:37;2.58;;;1.42;;
43345;SDS011;28937;51.160;4.146;2022-10-16T05:13:03;4.55;;;1.58;;
43345;SDS011;28937;51.160;4.146;2022-10-16T05:15:28;4.85;;;1.75;;
43345;SDS011;28937;51.160;4.146;2022-10-16T05:17:54;3.97;;;1.23;;
43345;SDS011;28937;51.160;4.146;2022-10-16T05:20:21;3.55;;;1.30;;
43345;SDS011;28937;51.160;4.146;2022-10-16T05:22:47;3.92;;;1.40;;
43345;SDS011;28937;51.160;4.146;2022-10-16T05:25:13;4.65;;;1.70;;
43345;SDS011;28937;51.160;4.146;2022-10-16T05:27:38;4.72;;;1.70;;
43345;SDS011;28937;51.160;4.146;2022-10-16T05:30:04;3.55;;;1.85;;
43345;SDS011;28937;51.160;4.146;2022-10-16T05:32:30;2.97;;;1.40;;
43345;SDS011;28937;51.160;4.146;2022-10-16T05:34:56;2.17;;;1.45;;
43345;SDS011;28937;51.160;4.146;2022-10-16T05:37:21;3.75;;;1.40;;
43345;SDS011;28937;51.160;4.146;2022-10-16T05:39:47;3.72;;;1.20;;
43345;SDS011;28937;51.160;4.146;2022-10-16T05:42:12;4.13;;;1.50;;
43345;SDS011;28937;51.160;4.146;2022-10-16T05:44:38;5.90;;;1.38;;
43345;SDS011;28937;51.160;4.146;2022-10-16T05:47:03;3.72;;;1.70;;
43345;SDS011;28937;51.160;4.146;2022-10-16T05:49:29;5.60;;;1.50;;
43345;SDS011;28937;51.160;4.146;2022-10-16T05:51:54;4.95;;;1.60;;
43345;SDS011;28937;51.160;4.146;2022-10-16T05:54:20;3.88;;;1.35;;
43345;SDS011;28937;51.160;4.146;2022-10-16T05:56:45;4.72;;;1.65;;
43345;SDS011;28937;51.160;4.146;2022-10-16T05:59:11;5.07;;;1.38;;
43345;SDS011;28937;51.160;4.146;2022-10-16T06:01:36;2.90;;;1.50;;
43345;SDS011;28937;51.160;4.146;2022-10-16T06:04:02;3.92;;;1.33;;
43345;SDS011;28937;51.160;4.146;2022-10-16T06:06:28;6.28;;;1.65;;
43345;SDS011;28937;51.160;4.146;2022-10-16T06:08:55;5.28;;;1.52;;
43345;SDS011;28937;51.160;4.146;2022-10-16T06:11:22;2.53;;;1.10;;
43345;SDS011;28937;51.160;4.146;2022-10-16T06:13:54;3.03;;;1.25;;
43345;SDS011;28937;51.160;4.146;2022-10-16T06:16:24;3.47;;;1.38;;
43345;SDS011;28937;51.160;4.146;2022-10-16T06:18:51;3.33;;;0.80;;
43345;SDS011;28937;51.160;4.146;2022-10-16T06:21:18;3.47;;;1.02;;
43345;SDS011;28937;51.160;4.146;2022-10-16T06:23:46;2.70;;;0.85;;
43345;SDS011;28937;51.160;4.146;2022-10-16T06:26:13;4.95;;;0.80;;
43345;SDS011;28937;51.160;4.146;2022-10-16T06:28:43;3.13;;;1.10;;
43345;SDS011;28937;51.160;4.146;2022-10-16T06:31:09;4.43;;;0.88;;
43345;SDS011;28937;51.160;4.146;2022-10-16T06:33:36;3.53;;;1.30;;
43345;SDS011;28937;51.160;4.146;2022-10-16T06:36:09;1.58;;;0.70;;
43345;SDS011;28937;51.160;4.146;2022-10-16T06:38:39;1.58;;;0.52;;
43345;SDS011;28937;51.160;4.146;2022-10-16T06:41:06;2.92;;;0.85;;
43345;SDS011;28937;51.160;4.146;2022-10-16T06:43:32;5.60;;;1.08;;
43345;SDS011;28937;51.160;4.146;2022-10-16T06:46:00;3.08;;;1.20;;
43345;SDS011;28937;51.160;4.146;2022-10-16T06:48:26;9.40;;;1.02;;
43345;SDS011;28937;51.160;4.146;2022-10-16T06:50:59;3.50;;;1.30;;
43345;SDS011;28937;51.160;4.146;2022-10-16T06:53:26;4.75;;;1.55;;
43345;SDS011;28937;51.160;4.146;2022-10-16T06:55:54;3.95;;;1.10;;
43345;SDS011;28937;51.160;4.146;2022-10-16T06:58:20;5.60;;;1.48;;
43345;SDS011;28937;51.160;4.146;2022-10-16T07:00:46;4.68;;;1.00;;
43345;SDS011;28937;51.160;4.146;2022-10-16T07:03:11;5.05;;;1.02;;
43345;SDS011;28937;51.160;4.146;2022-10-16T07:05:41;7.50;;;1.42;;
43345;SDS011;28937;51.160;4.146;2022-10-16T07:08:07;3.45;;;1.00;;
43345;SDS011;28937;51.160;4.146;2022-10-16T07:10:33;4.65;;;1.38;;
43345;SDS011;28937;51.160;4.146;2022-10-16T07:12:59;5.90;;;1.80;;
43345;SDS011;28937;51.160;4.146;2022-10-16T07:15:25;5.70;;;1.40;;
43345;SDS011;28937;51.160;4.146;2022-10-16T07:17:51;8.68;;;1.52;;
43345;SDS011;28937;51.160;4.146;2022-10-16T07:20:17;8.30;;;1.10;;
43345;SDS011;28937;51.160;4.146;2022-10-16T07:22:43;3.90;;;0.98;;
43345;SDS011;28937;51.160;4.146;2022-10-16T07:25:09;4.28;;;1.40;;
43345;SDS011;28937;51.160;4.146;2022-10-16T07:27:35;5.85;;;1.88;;
43345;SDS011;28937;51.160;4.146;2022-10-16T07:30:01;4.53;;;1.65;;
43345;SDS011;28937;51.160;4.146;2022-10-16T07:32:27;5.00;;;1.38;;
43345;SDS011;28937;51.160;4.146;2022-10-16T07:34:53;5.45;;;1.60;;
43345;SDS011;28937;51.160;4.146;2022-10-16T07:37:20;2.50;;;1.08;;
43345;SDS011;28937;51.160;4.146;2022-10-16T07:39:46;7.10;;;1.70;;
43345;SDS011;28937;51.160;4.146;2022-10-16T07:42:11;6.15;;;1.33;;
43345;SDS011;28937;51.160;4.146;2022-10-16T07:44:37;5.32;;;1.45;;
43345;SDS011;28937;51.160;4.146;2022-10-16T07:47:02;8.57;;;1.50;;
43345;SDS011;28937;51.160;4.146;2022-10-16T07:49:28;3.17;;;1.17;;
43345;SDS011;28937;51.160;4.146;2022-10-16T07:51:54;8.48;;;1.30;;
43345;SDS011;28937;51.160;4.146;2022-10-16T07:54:19;6.45;;;1.35;;
43345;SDS011;28937;51.160;4.146;2022-10-16T07:56:45;5.20;;;1.50;;
43345;SDS011;28937;51.160;4.146;2022-10-16T07:59:10;8.75;;;1.88;;
43345;SDS011;28937;51.160;4.146;2022-10-16T08:01:36;9.25;;;2.03;;
43345;SDS011;28937;51.160;4.146;2022-10-16T08:04:02;9.48;;;1.88;;
43345;SDS011;28937;51.160;4.146;2022-10-16T08:06:27;8.07;;;1.98;;
43345;SDS011;28937;51.160;4.146;2022-10-16T08:08:53;5.00;;;1.92;;
43345;SDS011;28937;51.160;4.146;2022-10-16T08:11:19;4.70;;;1.48;;
43345;SDS011;28937;51.160;4.146;2022-10-16T08:13:45;3.58;;;1.50;;
43345;SDS011;28937;51.160;4.146;2022-10-16T08:16:11;6.63;;;2.10;;
43345;SDS011;28937;51.160;4.146;2022-10-16T08:18:37;10.88;;;3.00;;
43345;SDS011;28937;51.160;4.146;2022-10-16T08:21:03;15.32;;;4.80;;
43345;SDS011;28937;51.160;4.146;2022-10-16T08:23:30;21.30;;;6.82;;
43345;SDS011;28937;51.160;4.146;2022-10-16T08:25:56;24.48;;;7.05;;
43345;SDS011;28937;51.160;4.146;2022-10-16T08:28:27;30.63;;;7.05;;
43345;SDS011;28937;51.160;4.146;2022-10-16T08:30:52;21.80;;;7.15;;
43345;SDS011;28937;51.160;4.146;2022-10-16T08:33:18;28.58;;;7.10;;
43345;SDS011;28937;51.160;4.146;2022-10-16T08:35:50;22.55;;;7.07;;
43345;SDS011;28937;51.160;4.146;2022-10-16T08:38:16;23.17;;;6.93;;
43345;SDS011;28937;51.160;4.146;2022-10-16T08:40:41;18.10;;;6.82;;
43345;SDS011;28937;51.160;4.146;2022-10-16T08:48:22;10.48;;;3.47;;
43345;SDS011;28937;51.160;4.146;2022-10-16T08:51:00;12.68;;;4.45;;
43345;SDS011;28937;51.160;4.146;2022-10-16T08:53:43;12.55;;;3.97;;
43345;SDS011;28937;51.160;4.146;2022-10-16T08:56:13;17.05;;;4.97;;
43345;SDS011;28937;51.160;4.146;2022-10-16T08:58:39;11.05;;;3.50;;
43345;SDS011;28937;51.160;4.146;2022-10-16T09:01:10;16.58;;;5.00;;
43345;SDS011;28937;51.160;4.146;2022-10-16T09:03:41;16.40;;;7.47;;
43345;SDS011;28937;51.160;4.146;2022-10-16T09:09:08;9.80;;;4.65;;
43345;SDS011;28937;51.160;4.146;2022-10-16T09:12:01;18.13;;;7.93;;
43345;SDS011;28937;51.160;4.146;2022-10-16T09:22:41;8.93;;;3.30;;
43345;SDS011;28937;51.160;4.146;2022-10-16T09:25:11;7.72;;;2.83;;
43345;SDS011;28937;51.160;4.146;2022-10-16T09:27:39;8.95;;;2.33;;
43345;SDS011;28937;51.160;4.146;2022-10-16T09:30:15;10.57;;;1.83;;
43345;SDS011;28937;51.160;4.146;2022-10-16T09:32:43;6.60;;;1.77;;
43345;SDS011;28937;51.160;4.146;2022-10-16T09:35:12;7.18;;;2.00;;
43345;SDS011;28937;51.160;4.146;2022-10-16T09:37:42;7.65;;;1.58;;
43345;SDS011;28937;51.160;4.146;2022-10-16T09:40:13;6.80;;;2.30;;
43345;SDS011;28937;51.160;4.146;2022-10-16T09:43:23;6.15;;;1.60;;
43345;SDS011;28937;51.160;4.146;2022-10-16T09:46:09;7.35;;;1.98;;
43345;SDS011;28937;51.160;4.146;2022-10-16T09:48:48;8.38;;;2.28;;
43345;SDS011;28937;51.160;4.146;2022-10-16T09:51:28;6.72;;;1.77;;
43345;SDS011;28937;51.160;4.146;2022-10-16T09:53:56;8.10;;;1.85;;
43345;SDS011;28937;51.160;4.146;2022-10-16T09:56:33;6.95;;;2.00;;
43345;SDS011;28937;51.160;4.146;2022-10-16T09:59:16;9.40;;;1.80;;
43345;SDS011;28937;51.160;4.146;2022-10-16T10:04:16;7.30;;;1.55;;
43345;SDS011;28937;51.160;4.146;2022-10-16T10:06:45;4.90;;;1.40;;
43345;SDS011;28937;51.160;4.146;2022-10-16T10:11:51;6.97;;;1.73;;
43345;SDS011;28937;51.160;4.146;2022-10-16T10:14:25;7.82;;;1.92;;
43345;SDS011;28937;51.160;4.146;2022-10-16T10:16:52;9.98;;;2.10;;
43345;SDS011;28937;51.160;4.146;2022-10-16T10:19:27;8.20;;;3.00;;
43345;SDS011;28937;51.160;4.146;2022-10-16T10:21:53;7.93;;;2.13;;
43345;SDS011;28937;51.160;4.146;2022-10-16T10:24:19;9.57;;;2.30;;
43345;SDS011;28937;51.160;4.146;2022-10-16T10:26:48;11.05;;;2.33;;
43345;SDS011;28937;51.160;4.146;2022-10-16T10:32:34;7.65;;;2.17;;
43345;SDS011;28937;51.160;4.146;2022-10-16T10:38:00;8.98;;;2.60;;
43345;SDS011;28937;51.160;4.146;2022-10-16T10:49:37;14.05;;;3.40;;
43345;SDS011;28937;51.160;4.146;2022-10-16T10:55:09;10.85;;;2.88;;
43345;SDS011;28937;51.160;4.146;2022-10-16T11:01:10;8.40;;;2.35;;
43345;SDS011;28937;51.160;4.146;2022-10-16T11:04:08;8.50;;;2.97;;
43345;SDS011;28937;51.160;4.146;2022-10-16T11:06:55;7.57;;;2.38;;
43345;SDS011;28937;51.160;4.146;2022-10-16T11:09:36;8.10;;;2.10;;
43345;SDS011;28937;51.160;4.146;2022-10-16T11:12:12;13.52;;;2.35;;
43345;SDS011;28937;51.160;4.146;2022-10-16T11:17:38;11.70;;;2.58;;
43345;SDS011;28937;51.160;4.146;2022-10-16T11:25:41;13.10;;;2.25;;
43345;SDS011;28937;51.160;4.146;2022-10-16T11:28:13;11.00;;;2.30;;
43345;SDS011;28937;51.160;4.146;2022-10-16T11:30:44;12.32;;;3.85;;
43345;SDS011;28937;51.160;4.146;2022-10-16T11:46:42;12.43;;;3.53;;
43345;SDS011;28937;51.160;4.146;2022-10-16T11:49:21;11.85;;;2.67;;
43345;SDS011;28937;51.160;4.146;2022-10-16T11:51:55;8.20;;;2.00;;
43345;SDS011;28937;51.160;4.146;2022-10-16T11:54:39;7.97;;;2.00;;
43345;SDS011;28937;51.160;4.146;2022-10-16T11:57:20;8.55;;;2.15;;
43345;SDS011;28937;51.160;4.146;2022-10-16T12:00:10;5.60;;;1.58;;
43345;SDS011;28937;51.160;4.146;2022-10-16T12:02:49;7.75;;;1.70;;
43345;SDS011;28937;51.160;4.146;2022-10-16T12:05:33;7.57;;;1.30;;
43345;SDS011;28937;51.160;4.146;2022-10-16T12:08:06;8.00;;;1.40;;
43345;SDS011;28937;51.160;4.146;2022-10-16T12:10:36;5.60;;;1.08;;
43345;SDS011;28937;51.160;4.146;2022-10-16T12:16:04;5.78;;;1.33;;
43345;SDS011;28937;51.160;4.146;2022-10-16T12:18:31;6.63;;;1.52;;
43345;SDS011;28937;51.160;4.146;2022-10-16T12:20:57;6.70;;;1.08;;
43345;SDS011;28937;51.160;4.146;2022-10-16T12:23:33;6.93;;;1.33;;
43345;SDS011;28937;51.160;4.146;2022-10-16T12:26:02;5.70;;;1.13;;
43345;SDS011;28937;51.160;4.146;2022-10-16T12:28:29;11.02;;;1.20;;
43345;SDS011;28937;51.160;4.146;2022-10-16T12:33:42;9.68;;;1.65;;
43345;SDS011;28937;51.160;4.146;2022-10-16T12:36:36;5.07;;;1.20;;
43345;SDS011;28937;51.160;4.146;2022-10-16T12:39:02;5.28;;;0.98;;
43345;SDS011;28937;51.160;4.146;2022-10-16T12:41:32;6.55;;;1.17;;
43345;SDS011;28937;51.160;4.146;2022-10-16T12:43:59;4.78;;;1.52;;
43345;SDS011;28937;51.160;4.146;2022-10-16T12:49:05;10.48;;;2.00;;
43345;SDS011;28937;51.160;4.146;2022-10-16T12:54:01;8.43;;;1.58;;
43345;SDS011;28937;51.160;4.146;2022-10-16T13:08:33;5.47;;;1.33;;
43345;SDS011;28937;51.160;4.146;2022-10-16T13:11:05;4.95;;;1.05;;
43345;SDS011;28937;51.160;4.146;2022-10-16T13:30:09;6.15;;;1.25;;
43345;SDS011;28937;51.160;4.146;2022-10-16T13:32:38;10.82;;;1.35;;
43345;SDS011;28937;51.160;4.146;2022-10-16T13:35:17;5.70;;;0.90;;
43345;SDS011;28937;51.160;4.146;2022-10-16T13:37:47;4.10;;;1.10;;
43345;SDS011;28937;51.160;4.146;2022-10-16T13:40:18;3.75;;;1.05;;
43345;SDS011;28937;51.160;4.146;2022-10-16T13:42:46;3.28;;;1.10;;
43345;SDS011;28937;51.160;4.146;2022-10-16T13:45:19;3.92;;;1.10;;
43345;SDS011;28937;51.160;4.146;2022-10-16T13:47:46;5.30;;;1.15;;
43345;SDS011;28937;51.160;4.146;2022-10-16T13:50:13;2.80;;;0.80;;
43345;SDS011;28937;51.160;4.146;2022-10-16T13:52:41;6.90;;;0.90;;
43345;SDS011;28937;51.160;4.146;2022-10-16T13:55:11;7.35;;;1.05;;
43345;SDS011;28937;51.160;4.146;2022-10-16T13:57:38;5.65;;;1.10;;
43345;SDS011;28937;51.160;4.146;2022-10-16T14:00:17;2.45;;;0.68;;
43345;SDS011;28937;51.160;4.146;2022-10-16T14:02:51;4.68;;;0.80;;
43345;SDS011;28937;51.160;4.146;2022-10-16T14:05:22;4.57;;;1.00;;
43345;SDS011;28937;51.160;4.146;2022-10-16T14:07:49;3.50;;;0.98;;
43345;SDS011;28937;51.160;4.146;2022-10-16T14:10:26;4.57;;;0.73;;
43345;SDS011;28937;51.160;4.146;2022-10-16T14:12:59;7.75;;;1.40;;
43345;SDS011;28937;51.160;4.146;2022-10-16T14:15:26;3.42;;;0.60;;
43345;SDS011;28937;51.160;4.146;2022-10-16T14:17:54;5.32;;;1.08;;
43345;SDS011;28937;51.160;4.146;2022-10-16T14:20:20;4.82;;;1.20;;
43345;SDS011;28937;51.160;4.146;2022-10-16T14:23:28;4.68;;;0.90;;
43345;SDS011;28937;51.160;4.146;2022-10-16T14:28:38;3.75;;;0.82;;
43345;SDS011;28937;51.160;4.146;2022-10-16T14:33:56;6.88;;;0.80;;
43345;SDS011;28937;51.160;4.146;2022-10-16T14:36:22;5.47;;;1.25;;
43345;SDS011;28937;51.160;4.146;2022-10-16T14:39:00;7.65;;;1.20;;
43345;SDS011;28937;51.160;4.146;2022-10-16T14:41:31;4.22;;;0.80;;
43345;SDS011;28937;51.160;4.146;2022-10-16T14:44:09;6.97;;;0.82;;
43345;SDS011;28937;51.160;4.146;2022-10-16T14:46:37;4.68;;;0.95;;
43345;SDS011;28937;51.160;4.146;2022-10-16T14:49:13;2.53;;;0.75;;
43345;SDS011;28937;51.160;4.146;2022-10-16T14:51:42;3.20;;;0.65;;
43345;SDS011;28937;51.160;4.146;2022-10-16T14:54:10;4.07;;;0.82;;
43345;SDS011;28937;51.160;4.146;2022-10-16T14:59:16;5.88;;;1.20;;
43345;SDS011;28937;51.160;4.146;2022-10-16T15:01:44;6.03;;;0.77;;
43345;SDS011;28937;51.160;4.146;2022-10-16T15:04:11;3.35;;;0.55;;
43345;SDS011;28937;51.160;4.146;2022-10-16T15:06:37;4.93;;;0.60;;
43345;SDS011;28937;51.160;4.146;2022-10-16T15:09:03;3.95;;;0.73;;
43345;SDS011;28937;51.160;4.146;2022-10-16T15:11:28;3.90;;;1.10;;
43345;SDS011;28937;51.160;4.146;2022-10-16T15:13:57;3.95;;;0.95;;
43345;SDS011;28937;51.160;4.146;2022-10-16T15:16:23;3.50;;;0.60;;
43345;SDS011;28937;51.160;4.146;2022-10-16T15:18:49;4.75;;;0.90;;
43345;SDS011;28937;51.160;4.146;2022-10-16T15:21:21;4.88;;;0.68;;
43345;SDS011;28937;51.160;4.146;2022-10-16T15:23:52;5.50;;;1.00;;
43345;SDS011;28937;51.160;4.146;2022-10-16T15:26:18;2.92;;;0.73;;
43345;SDS011;28937;51.160;4.146;2022-10-16T15:28:44;1.77;;;0.70;;
43345;SDS011;28937;51.160;4.146;2022-10-16T15:31:09;3.13;;;1.02;;
43345;SDS011;28937;51.160;4.146;2022-10-16T15:33:35;3.42;;;0.70;;
43345;SDS011;28937;51.160;4.146;2022-10-16T15:36:01;3.03;;;0.80;;
43345;SDS011;28937;51.160;4.146;2022-10-16T15:38:27;3.03;;;0.82;;
43345;SDS011;28937;51.160;4.146;2022-10-16T15:40:53;3.13;;;1.17;;
43345;SDS011;28937;51.160;4.146;2022-10-16T15:43:19;3.30;;;1.13;;
43345;SDS011;28937;51.160;4.146;2022-10-16T15:45:47;5.57;;;0.93;;
43345;SDS011;28937;51.160;4.146;2022-10-16T15:48:26;6.40;;;1.25;;
43345;SDS011;28937;51.160;4.146;2022-10-16T15:50:52;2.92;;;1.10;;
43345;SDS011;28937;51.160;4.146;2022-10-16T15:53:17;4.60;;;1.10;;
43345;SDS011;28937;51.160;4.146;2022-10-16T15:55:43;4.90;;;1.20;;
43345;SDS011;28937;51.160;4.146;2022-10-16T15:58:09;3.15;;;0.93;;
43345;SDS011;28937;51.160;4.146;2022-10-16T16:00:34;5.85;;;0.93;;
43345;SDS011;28937;51.160;4.146;2022-10-16T16:03:00;4.40;;;1.27;;
43345;SDS011;28937;51.160;4.146;2022-10-16T16:05:25;3.83;;;1.00;;
43345;SDS011;28937;51.160;4.146;2022-10-16T16:07:52;4.75;;;1.52;;
43345;SDS011;28937;51.160;4.146;2022-10-16T16:10:18;3.80;;;1.73;;
43345;SDS011;28937;51.160;4.146;2022-10-16T16:12:46;5.07;;;2.10;;
43345;SDS011;28937;51.160;4.146;2022-10-16T16:15:16;5.82;;;1.90;;
43345;SDS011;28937;51.160;4.146;2022-10-16T16:17:43;5.43;;;2.03;;
43345;SDS011;28937;51.160;4.146;2022-10-16T16:20:09;4.25;;;1.70;;
43345;SDS011;28937;51.160;4.146;2022-10-16T16:22:35;5.85;;;1.80;;
43345;SDS011;28937;51.160;4.146;2022-10-16T16:25:00;5.60;;;2.42;;
43345;SDS011;28937;51.160;4.146;2022-10-16T16:27:26;7.03;;;2.70;;
43345;SDS011;28937;51.160;4.146;2022-10-16T16:29:53;8.48;;;4.90;;
43345;SDS011;28937;51.160;4.146;2022-10-16T16:32:20;5.57;;;2.90;;
43345;SDS011;28937;51.160;4.146;2022-10-16T16:34:45;4.85;;;4.07;;
43345;SDS011;28937;51.160;4.146;2022-10-16T16:37:12;7.85;;;5.55;;
43345;SDS011;28937;51.160;4.146;2022-10-16T16:39:37;7.97;;;5.53;;
43345;SDS011;28937;51.160;4.146;2022-10-16T16:42:03;6.65;;;4.13;;
43345;SDS011;28937;51.160;4.146;2022-10-16T16:44:31;5.95;;;3.47;;
43345;SDS011;28937;51.160;4.146;2022-10-16T16:46:57;7.97;;;3.92;;
43345;SDS011;28937;51.160;4.146;2022-10-16T16:49:23;6.88;;;3.53;;
43345;SDS011;28937;51.160;4.146;2022-10-16T16:51:48;6.88;;;4.18;;
43345;SDS011;28937;51.160;4.146;2022-10-16T16:54:14;8.50;;;5.40;;
43345;SDS011;28937;51.160;4.146;2022-10-16T16:56:40;6.93;;;4.28;;